Rockland, Massachusetts
Current Conditions -  °F | °C
As of 2:15 PM on Friday 21 Nov 2014 (Local Time) from KGHG Reporting Station
Clear Clear  
Wind Chill: 28°   Ceiling: Unl
Heat Index: 36°   Visibility: 10mi
Dew Point: 10°   Wind: 10mph
Humidity: 35%   Direction: 320°NW
Pressure: 30.17"   Gusts: 24mph
Location:  42.13°N, 70.92°W
Report Text: KGHG 211915Z AUTO 32009G21KT 010V360 10SM CLR 02/M12 A3017 RMK AO2
Loading
Personal Weather Stations






























Interactive Weather Map New forecast layout! Learn more

10-Day Weather Forecast

Advertisements
Track Severe Weather on mobile